This is the latest recevied weather packets stored in our database for station/object OK3MS-5. If no packets are shown the sender has not sent any weather packets the latest 10 day(s).
| Time | Temp. | Humidity | Pressure | Rain* | Wind** | Luminosity | Snow |
|---|---|---|---|---|---|---|---|
| 1787946002 | 17.78° C | 99% | 1012.4 hPa | 0.25 mm | - | 0 W/m² | - |
| 1787945704 | 17.78° C | 98% | 1012.4 hPa | 0.51 mm | - | 0 W/m² | - |
| 1787945402 | 17.78° C | 98% | 1012.4 hPa | 0.76 mm | - | 0 W/m² | - |
| 1787945104 | 17.78° C | 98% | 1012.5 hPa | 1.27 mm | - | 0 W/m² | - |
| 1787944804 | 17.78° C | 97% | 1012.7 hPa | 1.52 mm | - | 0 W/m² | - |
| 1787944503 | 17.78° C | 97% | 1012.7 hPa | 1.52 mm | - | 0 W/m² | - |
| 1787944203 | 17.78° C | 97% | 1012.3 hPa | 1.78 mm | - | 0 W/m² | - |
| 1787943904 | 17.78° C | 97% | 1012.1 hPa | 1.78 mm | - | 0 W/m² | - |
| 1787943303 | 17.78° C | 97% | 1011.5 hPa | 2.29 mm | - | 0 W/m² | - |
| 1787942704 | 17.78° C | 97% | 1011.9 hPa | 3.56 mm | - | 0 W/m² | - |
| 1787942410 | 17.78° C | 97% | 1012.1 hPa | 5.59 mm | - | 0 W/m² | - |
| 1787942103 | 17.78° C | 97% | 1012.6 hPa | 8.64 mm | - | 0 W/m² | - |
| 1787941809 | 17.78° C | 97% | 1013.3 hPa | 8.89 mm | - | 0 W/m² | - |
| 1787941503 | 17.78° C | 97% | 1014 hPa | 8.38 mm | - | 0 W/m² | - |
| 1787941205 | 17.78° C | 97% | 1014 hPa | 8.13 mm | - | 0 W/m² | - |
| 1787940904 | 17.78° C | 97% | 1013.8 hPa | 8.13 mm | - | 0 W/m² | - |
| 1787940603 | 17.78° C | 98% | 1013.8 hPa | 7.87 mm | - | 0 W/m² | - |
| 1787940304 | 17.78° C | 97% | 1013.5 hPa | 7.87 mm | - | 0 W/m² | - |
| 1787940002 | 18.33° C | 97% | 1013.8 hPa | 7.62 mm | - | 0 W/m² | - |
| 1787939704 | 18.33° C | 97% | 1013.6 hPa | 7.37 mm | - | 0 W/m² | - |
| 1787939404 | 18.33° C | 97% | 1013.6 hPa | 7.11 mm | - | 0 W/m² | - |
| 1787938203 | 23.33° C | 69% | 1012.4 hPa | 0 mm | - | 0 W/m² | - |
| 1787937909 | 23.89° C | 66% | 1011.6 hPa | 0 mm | - | 0 W/m² | - |
| 1787937606 | 23.89° C | 66% | 1010.9 hPa | 0 mm | - | 1 W/m² | - |
| 1787937305 | 24.44° C | 65% | 1010.7 hPa | 0 mm | - | 1 W/m² | - |
* Rain latest hour (hover to see other rain measurements)
** Current wind speed in m/s (hover to see current wind gust speed)